Time;durP1;ratioP1;P1;durP2;ratioP2;P2;SDS_P1;SDS_P2;PMS_P1;PMS_P2;Temp;Humidity;BMP_temperature;BMP_pressure;BME280_temperature;BME280_humidity;BME280_pressure;Samples;Min_cycle;Max_cycle;Signal;HPM_P1;HPM_P2
2021/06/26 00:02:16;;;;;;;19.25;17.45;;;15.90;99.90;;;16.59;94.58;98243.31;5223411;28;20201;-57
2021/06/26 00:04:49;;;;;;;23.48;19.90;;;15.80;99.90;;;16.54;95.92;98248.31;5226615;28;20654;-58
2021/06/26 00:07:24;;;;;;;21.52;19.45;;;15.80;99.90;;;16.45;96.69;98242.75;5226548;28;20223;-56
2021/06/26 00:09:57;;;;;;;23.00;20.70;;;15.80;99.90;;;16.48;97.32;98242.88;5226342;28;20204;-60
2021/06/26 00:12:30;;;;;;;21.02;19.02;;;15.80;99.90;;;16.46;96.51;98241.97;5226459;28;20212;-57
2021/06/26 00:15:05;;;;;;;22.23;20.02;;;15.70;99.90;;;16.51;96.24;98237.88;5212790;28;20198;-56
2021/06/26 00:17:38;;;;;;;21.67;19.58;;;15.70;99.90;;;16.57;96.28;98235.53;5214156;28;20221;-58
2021/06/26 00:20:13;;;;;;;20.67;18.58;;;15.70;99.90;;;16.56;96.03;98240.63;5225188;28;20215;-60
2021/06/26 00:22:47;;;;;;;22.33;20.05;;;15.70;99.90;;;16.49;96.92;98236.06;5226301;28;20199;-56
2021/06/26 00:25:22;;;;;;;21.42;19.17;;;15.70;99.90;;;16.43;96.63;98239.25;5210432;28;20205;-58
2021/06/26 00:27:55;;;;;;;21.40;19.38;;;15.70;99.90;;;16.45;96.68;98232.44;5205305;28;20312;-60
2021/06/26 00:30:28;;;;;;;22.90;20.70;;;15.70;99.90;;;16.45;96.00;98232.44;5213484;28;20201;-57
2021/06/26 00:33:02;;;;;;;23.13;20.83;;;15.60;99.90;;;16.48;96.17;98222.25;5207652;28;20206;-59
2021/06/26 00:35:35;;;;;;;20.33;18.42;;;15.70;99.90;;;16.49;95.62;98224.03;5226214;28;20208;-57
2021/06/26 00:38:09;;;;;;;22.85;20.65;;;15.70;99.90;;;16.49;96.14;98203.38;5225083;28;20209;-58
2021/06/26 00:40:42;;;;;;;20.83;18.88;;;15.70;99.90;;;16.48;95.60;98204.19;5208382;28;20605;-58
2021/06/26 00:43:17;;;;;;;26.05;19.25;;;15.70;99.90;;;16.43;95.83;98210.88;5218583;28;20193;-58
2021/06/26 00:45:50;;;;;;;20.25;18.25;;;15.60;99.90;;;16.34;95.57;98219.13;5217447;28;20210;-59
2021/06/26 00:48:24;;;;;;;22.48;20.25;;;15.50;99.90;;;16.33;96.08;98224.22;5211056;28;20198;-57
2021/06/26 00:50:57;;;;;;;19.80;17.88;;;15.50;99.90;;;16.35;95.54;98212.28;5216288;28;20280;-59
2021/06/26 00:53:31;;;;;;;24.00;17.52;;;15.50;99.90;;;16.26;95.70;98209.31;5205083;28;20260;-58
2021/06/26 00:56:05;;;;;;;28.67;18.48;;;15.50;99.90;;;16.16;96.64;98203.78;5208784;28;20213;-57
2021/06/26 00:58:39;;;;;;;33.15;20.05;;;15.40;99.90;;;16.11;97.04;98202.72;5214546;28;20549;-59
2021/06/26 01:01:13;;;;;;;23.17;20.63;;;15.40;99.90;;;16.09;98.94;98203.47;5225396;28;20215;-58
2021/06/26 01:03:46;;;;;;;62.72;19.95;;;15.50;99.90;;;16.01;98.72;98200.56;5225446;28;20287;-58
2021/06/26 01:06:20;;;;;;;20.35;18.45;;;15.30;99.90;;;16.03;98.06;98198.94;5225584;28;20581;-58
2021/06/26 01:08:54;;;;;;;19.73;17.92;;;15.30;99.90;;;16.04;97.35;98197.25;5225617;28;20204;-58
2021/06/26 01:11:27;;;;;;;20.85;18.88;;;15.30;99.90;;;16.09;97.34;98201.78;5225529;28;20193;-58
2021/06/26 01:14:01;;;;;;;19.35;17.42;;;15.30;99.90;;;16.06;96.94;98199.06;5225608;28;20216;-59
2021/06/26 01:16:35;;;;;;;20.00;18.00;;;15.30;99.90;;;16.00;96.27;98201.41;5225447;28;20220;-58
2021/06/26 01:19:08;;;;;;;17.90;16.30;;;15.20;99.90;;;16.04;96.80;98194.66;5225740;28;20202;-57
2021/06/26 01:21:41;;;;;;;21.15;18.80;;;15.30;99.90;;;16.08;96.75;98196.53;5225807;28;20225;-57
2021/06/26 01:24:15;;;;;;;18.08;16.35;;;15.30;99.90;;;16.01;96.40;98198.00;5216737;28;20196;-57
2021/06/26 01:26:56;;;;;;;17.77;16.27;;;15.20;99.90;;;16.00;95.83;98191.09;5225934;28;20586;-60
2021/06/26 01:29:29;;;;;;;19.92;18.08;;;15.20;99.90;;;15.96;96.04;98195.22;5225917;28;20185;-60
2021/06/26 01:32:07;;;;;;;18.27;16.58;;;15.20;99.90;;;15.92;97.04;98195.94;5217287;28;20214;-60
2021/06/26 01:34:40;;;;;;;17.48;15.77;;;15.20;99.90;;;15.95;96.76;98192.59;5224048;28;20569;-60
2021/06/26 01:37:13;;;;;;;35.45;18.40;;;15.20;99.90;;;15.94;96.40;98193.44;5215825;28;20218;-58
2021/06/26 01:39:48;;;;;;;15.48;14.13;;;15.30;99.90;;;15.91;96.49;98191.59;5210709;28;20198;-60
2021/06/26 01:42:21;;;;;;;17.55;15.95;;;15.20;99.90;;;15.83;97.13;98192.97;5225108;28;20232;-60
2021/06/26 01:44:54;;;;;;;19.52;15.80;;;15.20;99.90;;;15.85;97.84;98196.50;5216637;28;20200;-57
2021/06/26 01:47:27;;;;;;;15.55;14.25;;;15.20;99.90;;;15.80;97.55;98187.69;5205758;28;20220;-59
2021/06/26 01:50:01;;;;;;;16.23;14.73;;;15.10;99.90;;;15.80;97.23;98191.97;5212035;28;20196;-60
2021/06/26 01:52:34;;;;;;;17.08;15.57;;;15.10;99.90;;;15.85;98.39;98190.44;5213735;28;20554;-57
2021/06/26 01:55:10;;;;;;;42.33;17.10;;;15.20;99.90;;;15.90;98.63;98188.94;5221407;28;20658;-58
2021/06/26 01:57:45;;;;;;;18.83;16.92;;;15.20;99.90;;;15.88;98.98;98196.63;5217732;28;20213;-57
2021/06/26 02:00:21;;;;;;;18.02;16.33;;;15.30;99.90;;;15.85;99.27;98187.88;5220323;28;20658;-60
2021/06/26 02:02:54;;;;;;;16.92;15.30;;;15.20;99.90;;;15.93;98.87;98191.66;5229214;28;20616;-58
2021/06/26 02:05:27;;;;;;;17.60;16.00;;;15.30;99.90;;;15.95;98.46;98197.75;5228636;28;20295;-55
2021/06/26 02:08:01;;;;;;;26.92;16.45;;;15.20;99.90;;;15.95;98.80;98187.44;5228766;28;20221;-58
2021/06/26 02:10:36;;;;;;;18.20;16.60;;;15.30;99.90;;;16.00;98.65;98183.34;5228779;28;20288;-58
2021/06/26 02:13:09;;;;;;;18.05;16.45;;;15.30;99.90;;;15.99;98.03;98179.00;5219182;28;20207;-59
2021/06/26 02:15:42;;;;;;;16.90;15.27;;;15.20;99.90;;;16.03;98.00;98182.59;5220869;28;20292;-58
2021/06/26 02:18:15;;;;;;;18.38;16.70;;;15.30;99.90;;;16.05;98.02;98181.81;5228737;28;20216;-57
2021/06/26 02:20:48;;;;;;;16.85;15.27;;;15.30;99.90;;;16.02;97.82;98188.56;5228329;28;20220;-56
2021/06/26 02:23:21;;;;;;;17.40;15.68;;;15.30;99.90;;;15.99;98.12;98184.16;5218893;28;20685;-57
2021/06/26 02:25:56;;;;;;;16.65;15.15;;;15.30;99.90;;;16.04;97.93;98187.81;5207859;28;20202;-58
2021/06/26 02:28:29;;;;;;;17.13;15.52;;;15.30;99.90;;;16.06;97.60;98191.34;5217337;28;20200;-58
2021/06/26 02:31:02;;;;;;;16.48;14.98;;;15.30;99.90;;;16.13;97.67;98187.31;5223206;28;20200;-59
2021/06/26 02:33:35;;;;;;;18.48;16.77;;;15.40;99.90;;;16.12;97.15;98181.28;5215033;28;20198;-53
2021/06/26 02:36:08;;;;;;;18.38;16.58;;;15.40;99.90;;;16.12;97.81;98186.44;5207930;28;20220;-56
2021/06/26 02:38:41;;;;;;;19.00;17.13;;;15.40;99.90;;;16.08;96.98;98179.41;5216753;28;20193;-58
2021/06/26 02:41:17;;;;;;;17.70;16.10;;;15.30;99.90;;;15.95;96.69;98182.28;5228634;28;20225;-58
2021/06/26 02:43:50;;;;;;;17.70;16.00;;;15.20;99.90;;;15.96;96.32;98182.31;5228601;28;20196;-57
2021/06/26 02:46:23;;;;;;;19.05;17.05;;;15.20;99.90;;;15.94;96.02;98181.41;5211931;28;20213;-57
2021/06/26 02:48:57;;;;;;;18.95;17.17;;;15.10;99.90;;;15.98;96.60;98182.41;5225141;28;20653;-58
2021/06/26 02:51:30;;;;;;;17.55;15.88;;;15.20;99.90;;;15.93;96.84;98183.91;5227936;28;20661;-59
2021/06/26 02:54:03;;;;;;;17.33;15.73;;;15.20;99.90;;;15.85;96.45;98180.13;5227922;28;20205;-58
2021/06/26 02:56:37;;;;;;;19.02;17.23;;;15.10;99.90;;;15.91;96.71;98181.28;5227742;28;20225;-57
2021/06/26 02:59:10;;;;;;;18.25;16.50;;;15.20;99.90;;;15.88;96.72;98180.25;5227951;28;20203;-58
2021/06/26 03:01:43;;;;;;;19.25;17.25;;;15.20;99.90;;;15.85;96.82;98180.13;5227703;28;20235;-56
2021/06/26 03:04:16;;;;;;;23.42;18.13;;;15.10;99.90;;;15.81;96.30;98184.28;5211416;28;20201;-60
2021/06/26 03:06:49;;;;;;;23.70;17.67;;;15.10;99.90;;;15.68;96.23;98189.72;5206842;28;20225;-58
2021/06/26 03:09:22;;;;;;;18.80;15.80;;;14.90;99.90;;;15.64;95.83;98193.84;5207162;28;20206;-57
2021/06/26 03:11:57;;;;;;;17.35;15.75;;;14.90;99.90;;;15.63;96.20;98194.69;5216061;28;20201;-59
2021/06/26 03:14:30;;;;;;;18.88;17.13;;;14.90;99.90;;;15.65;96.57;98199.88;5227197;28;20211;-55
2021/06/26 03:17:03;;;;;;;101.28;19.80;;;14.90;99.90;;;15.61;97.00;98196.28;5227278;28;20459;-57
2021/06/26 03:19:38;;;;;;;20.30;17.20;;;14.90;99.90;;;15.56;97.81;98187.47;5227502;28;20201;-55
2021/06/26 03:22:11;;;;;;;21.58;17.38;;;14.90;99.90;;;15.64;97.97;98191.28;5227320;28;20224;-60
2021/06/26 03:24:44;;;;;;;34.95;17.05;;;15.00;99.90;;;15.66;98.10;98183.63;5227291;28;20208;-56
2021/06/26 03:27:19;;;;;;;19.35;17.50;;;14.90;99.90;;;15.67;97.70;98183.66;5227102;28;20219;-53
2021/06/26 03:29:52;;;;;;;38.53;18.15;;;14.90;99.90;;;15.68;98.33;98182.91;5227201;28;20203;-58
2021/06/26 03:32:25;;;;;;;19.30;16.40;;;15.00;99.90;;;15.68;98.21;98188.06;5226864;28;20203;-58
2021/06/26 03:34:58;;;;;;;19.60;17.67;;;14.90;99.90;;;15.69;97.64;98182.06;5227006;28;20208;-55
2021/06/26 03:37:31;;;;;;;19.80;17.80;;;14.90;99.90;;;15.67;97.85;98178.50;5227185;28;20221;-58
2021/06/26 03:40:05;;;;;;;20.80;17.92;;;14.90;99.90;;;15.63;97.68;98189.53;5227282;28;20209;-59
2021/06/26 03:42:40;;;;;;;18.00;16.30;;;14.90;99.90;;;15.64;98.21;98180.09;5226850;28;20225;-59
2021/06/26 03:45:13;;;;;;;38.72;19.30;;;14.90;99.90;;;15.63;96.88;98186.94;5215819;28;20196;-57
2021/06/26 03:47:46;;;;;;;18.23;16.40;;;14.90;99.90;;;15.58;96.93;98185.88;5206351;28;20218;-55
2021/06/26 03:50:19;;;;;;;22.15;15.63;;;14.70;99.90;;;15.59;96.92;98191.88;5206166;28;20202;-60
2021/06/26 03:52:52;;;;;;;19.90;15.00;;;14.80;99.90;;;15.48;95.96;98194.00;5206363;28;20194;-57
2021/06/26 03:55:25;;;;;;;19.25;16.48;;;14.70;99.90;;;15.38;96.18;98197.00;5219257;28;20208;-56
2021/06/26 03:58:00;;;;;;;17.98;16.23;;;14.60;99.90;;;15.36;96.42;98189.19;5226572;28;20307;-56
2021/06/26 04:00:33;;;;;;;28.30;18.15;;;14.60;99.90;;;15.36;96.40;98196.94;5226507;28;20694;-59
2021/06/26 04:03:08;;;;;;;42.97;20.05;;;14.60;99.90;;;15.25;97.54;98200.72;5226598;28;20687;-58
2021/06/26 04:05:41;;;;;;;19.58;17.67;;;14.50;99.90;;;15.28;97.39;98198.28;5226398;28;20201;-56
2021/06/26 04:08:14;;;;;;;19.60;16.92;;;14.50;99.90;;;15.19;97.15;98193.59;5226533;28;20201;-57
2021/06/26 04:10:47;;;;;;;25.02;19.30;;;14.50;99.90;;;15.28;97.37;98196.63;5226280;28;20203;-58
2021/06/26 04:13:22;;;;;;;20.13;18.00;;;14.50;99.90;;;15.32;98.04;98195.91;5226139;28;20205;-57
2021/06/26 04:15:55;;;;;;;32.30;18.85;;;14.60;99.90;;;15.42;96.76;98199.75;5226276;28;20581;-59
2021/06/26 04:18:28;;;;;;;20.70;18.70;;;14.60;99.90;;;15.37;97.69;98196.13;5226290;28;20208;-59
2021/06/26 04:21:01;;;;;;;19.80;17.73;;;14.70;99.90;;;15.36;97.62;98198.63;5225704;28;20606;-58
2021/06/26 04:23:34;;;;;;;19.38;17.48;;;14.60;99.90;;;15.35;97.52;98196.88;5226051;28;20771;-60
2021/06/26 04:26:07;;;;;;;20.98;18.95;;;14.60;99.90;;;15.41;98.26;98192.00;5226099;28;20262;-58
2021/06/26 04:28:41;;;;;;;19.52;17.63;;;14.70;99.90;;;15.46;97.62;98190.50;5226363;28;20231;-59
2021/06/26 04:31:14;;;;;;;22.02;19.90;;;14.70;99.90;;;15.61;97.37;98195.41;5226434;28;20208;-58
2021/06/26 04:33:47;;;;;;;21.95;19.75;;;14.80;99.90;;;15.63;97.17;98194.69;5225796;28;20193;-59
2021/06/26 04:36:20;;;;;;;20.35;18.35;;;14.90;99.90;;;15.64;96.43;98191.28;5225944;28;20676;-60
2021/06/26 04:38:54;;;;;;;20.42;18.30;;;14.90;99.90;;;15.75;97.86;98194.34;5212965;28;20194;-56
2021/06/26 04:41:28;;;;;;;22.20;18.25;;;15.00;99.90;;;15.80;96.15;98192.84;5206560;28;20204;-56
2021/06/26 04:44:02;;;;;;;30.35;19.60;;;15.10;99.90;;;15.90;95.13;98183.78;5225799;28;20669;-58
2021/06/26 04:46:37;;;;;;;20.98;18.98;;;15.10;99.90;;;15.95;94.82;98188.31;5225803;28;20258;-59
2021/06/26 04:49:11;;;;;;;19.40;17.48;;;15.10;99.90;;;16.05;94.01;98180.94;5225953;28;20243;-61
2021/06/26 04:51:44;;;;;;;21.20;19.10;;;15.10;99.90;;;16.03;93.41;98183.47;5237943;28;20200;-59
2021/06/26 04:54:17;;;;;;;18.98;17.08;;;15.20;99.90;;;16.06;92.64;98191.34;5225958;28;20595;-59
2021/06/26 04:56:50;;;;;;;19.23;17.25;;;15.20;99.90;;;16.17;92.98;98190.09;5225781;28;20217;-58
2021/06/26 04:59:25;;;;;;;19.58;17.67;;;15.30;99.90;;;16.18;92.76;98190.97;5225161;28;20200;-58
2021/06/26 05:01:58;;;;;;;17.73;16.02;;;15.40;99.90;;;16.30;92.99;98190.56;5205443;28;20216;-58
2021/06/26 05:04:32;;;;;;;18.10;16.42;;;15.50;99.90;;;16.48;91.99;98196.44;5205012;28;20178;-59
2021/06/26 05:07:05;;;;;;;17.83;16.23;;;15.60;99.90;;;16.59;90.63;98187.41;5213861;28;20253;-57
2021/06/26 05:09:38;;;;;;;19.17;17.33;;;15.70;99.90;;;16.72;89.98;98193.06;5211722;28;20204;-57
2021/06/26 05:12:11;;;;;;;17.77;16.17;;;15.70;99.90;;;16.66;88.32;98192.00;5214789;28;20616;-59
2021/06/26 05:14:46;;;;;;;17.65;16.00;;;15.70;99.90;;;16.64;88.63;98180.72;5225442;28;20680;-59
2021/06/26 05:17:19;;;;;;;18.15;16.55;;;15.70;99.90;;;16.81;89.57;98185.69;5221613;28;20576;-60
2021/06/26 05:19:52;;;;;;;17.80;16.05;;;16.00;99.90;;;17.04;88.70;98197.75;5225066;28;20207;-59
2021/06/26 05:22:25;;;;;;;17.38;15.77;;;16.10;99.90;;;17.42;87.53;98195.69;5224855;28;20760;-58
2021/06/26 05:24:58;;;;;;;17.20;15.57;;;16.50;99.90;;;17.58;84.94;98193.66;5214998;28;20198;-58
2021/06/26 05:27:31;;;;;;;16.90;15.35;;;16.60;99.90;;;17.78;84.43;98198.69;5221016;28;20313;-57
2021/06/26 05:30:07;;;;;;;14.88;13.43;;;16.80;99.90;;;18.04;82.13;98190.94;5215283;28;20219;-57
2021/06/26 05:32:41;;;;;;;14.95;13.55;;;17.00;99.90;;;18.44;82.21;98184.47;5219762;28;20202;-61
2021/06/26 05:35:14;;;;;;;14.27;13.18;;;17.30;99.90;;;19.01;79.39;98183.63;5223999;28;20197;-59
2021/06/26 05:37:47;;;;;;;14.50;13.30;;;17.90;99.90;;;19.40;75.80;98195.91;5226355;28;20665;-61
2021/06/26 05:40:20;;;;;;;12.88;11.80;;;18.20;99.90;;;19.43;75.67;98189.13;5218111;28;20280;-61
2021/06/26 05:42:54;;;;;;;14.02;12.82;;;18.10;99.90;;;19.36;76.42;98187.19;5215506;28;20323;-61
2021/06/26 05:45:28;;;;;;;13.35;12.25;;;18.10;99.90;;;19.52;75.87;98191.09;5215515;28;20292;-57
2021/06/26 05:48:01;;;;;;;14.90;13.70;;;18.10;99.90;;;19.50;75.51;98192.75;5212477;28;20209;-59
2021/06/26 05:50:35;;;;;;;13.77;12.65;;;18.10;99.90;;;19.39;75.51;98192.47;5227764;28;20569;-61
2021/06/26 05:53:08;;;;;;;14.45;13.23;;;18.00;99.90;;;19.54;74.42;98189.41;5218601;28;20193;-59
2021/06/26 05:55:42;;;;;;;13.75;12.55;;;18.10;99.90;;;20.10;73.98;98177.06;5223360;28;20207;-57
2021/06/26 05:58:15;;;;;;;13.57;12.40;;;18.60;99.90;;;20.48;72.62;98184.88;5211263;28;20194;-60
2021/06/26 06:00:49;;;;;;;13.38;12.38;;;19.00;99.90;;;21.00;68.33;98188.63;5228528;28;20215;-61
2021/06/26 06:03:22;;;;;;;14.05;12.75;;;19.50;99.90;;;21.40;68.10;98184.28;5219314;28;20209;-60
2021/06/26 06:05:55;;;;;;;13.90;12.80;;;19.60;99.90;;;21.70;66.96;98185.72;5224466;28;20196;-60
2021/06/26 06:08:28;;;;;;;13.65;12.38;;;19.80;99.90;;;22.35;65.46;98185.09;5215427;28;20285;-60
2021/06/26 06:11:01;;;;;;;13.90;12.73;;;20.20;99.90;;;21.98;66.14;98189.69;5223555;28;20193;-59
2021/06/26 06:13:34;;;;;;;13.57;12.38;;;20.40;99.90;;;22.77;63.24;98182.25;5227422;28;20566;-60
2021/06/26 06:16:09;;;;;;;12.32;11.43;;;20.70;99.90;;;23.41;60.95;98181.34;5225209;28;20300;-60
2021/06/26 06:18:42;;;;;;;15.80;14.43;;;21.20;99.90;;;23.85;58.12;98186.22;5214961;28;20275;-59
2021/06/26 06:21:15;;;;;;;14.48;13.18;;;21.50;99.90;;;24.18;58.23;98183.91;5227156;28;20203;-60
2021/06/26 06:23:48;;;;;;;13.30;12.30;;;21.50;99.90;;;24.16;57.52;98180.41;5223237;28;20217;-60
2021/06/26 06:26:22;;;;;;;14.75;13.52;;;21.60;99.90;;;24.14;56.99;98176.88;5223926;28;20217;-60
2021/06/26 06:28:55;;;;;;;14.20;13.13;;;21.80;99.90;;;23.53;59.57;98176.28;5227078;28;20211;-59
2021/06/26 06:31:29;;;;;;;12.32;11.35;;;21.40;99.90;;;23.70;59.93;98174.75;5222960;28;20200;-61
2021/06/26 06:34:02;;;;;;;13.52;12.43;;;21.40;99.90;;;23.61;59.89;98174.63;5220360;28;20193;-62
2021/06/26 06:36:36;;;;;;;13.73;12.52;;;21.50;99.90;;;23.56;62.00;98179.78;5212163;28;20303;-59
2021/06/26 06:39:09;;;;;;;15.18;13.88;;;21.60;99.90;;;24.49;58.22;98184.16;5227612;28;20295;-62
2021/06/26 06:41:42;;;;;;;15.63;14.23;;;22.30;99.90;;;24.99;56.91;98175.72;5226916;28;20294;-62
2021/06/26 06:44:15;;;;;;;14.65;13.35;;;22.80;99.90;;;25.37;54.87;98169.81;5225773;28;20217;-60
2021/06/26 06:46:54;;;;;;;13.90;12.70;;;23.50;99.90;;;26.03;53.90;98170.81;5209226;28;20224;-60
2021/06/26 06:49:27;;;;;;;15.02;13.70;;;23.80;99.90;;;26.81;51.16;98177.75;5207596;28;20580;-63
2021/06/26 06:52:00;;;;;;;14.00;12.80;;;24.20;99.90;;;26.40;52.07;98176.06;5207529;28;20584;-63
2021/06/26 06:54:34;;;;;;;14.20;13.10;;;24.20;99.90;;;26.72;51.61;98178.66;5217290;28;20640;-62
2021/06/26 06:57:08;;;;;;;13.50;12.40;;;24.20;99.90;;;26.72;51.26;98173.41;5223978;28;20747;-63
2021/06/26 06:59:41;;;;;;;14.23;13.02;;;24.40;99.90;;;27.36;49.52;98177.59;5226800;28;20206;-63
2021/06/26 07:02:15;;;;;;;13.20;12.07;;;24.70;99.90;;;27.61;48.78;98166.94;5226777;28;20205;-62
2021/06/26 07:04:49;;;;;;;13.10;12.07;;;25.00;99.90;;;27.76;48.28;98172.13;5218100;28;20602;-60
2021/06/26 07:07:22;;;;;;;11.85;10.90;;;25.10;99.90;;;27.81;48.64;98157.25;5222496;28;20209;-62
2021/06/26 07:09:55;;;;;;;12.57;11.68;;;25.40;99.90;;;28.07;47.69;98158.78;5224929;28;20197;-62
2021/06/26 07:12:28;;;;;;;12.93;11.82;;;25.60;99.90;;;28.10;46.77;98156.16;5227111;28;20205;-62
2021/06/26 07:15:01;;;;;;;11.32;10.45;;;25.90;99.90;;;28.74;46.51;98160.81;5221072;28;20201;-63
2021/06/26 07:17:35;;;;;;;11.65;10.70;;;26.40;99.90;;;29.10;44.73;98156.06;5208212;28;20591;-63
2021/06/26 07:20:10;;;;;;;11.90;11.00;;;26.50;99.90;;;28.43;44.46;98160.25;5224974;28;20196;-63
2021/06/26 07:22:43;;;;;;;10.30;9.50;;;26.00;99.90;;;28.04;46.44;98154.44;5215084;28;20199;-61
2021/06/26 07:25:16;;;;;;;11.70;10.80;;;25.60;99.90;;;28.33;44.57;98152.41;5220738;28;20588;-62
2021/06/26 07:27:49;;;;;;;13.00;11.90;;;25.90;99.90;;;28.20;45.39;98152.53;5224588;28;20213;-63
2021/06/26 07:30:22;;;;;;;11.57;10.68;;;26.00;99.80;;;28.56;45.05;98150.50;5217469;28;20197;-62
2021/06/26 07:32:57;;;;;;;10.88;10.07;;;26.20;99.90;;;28.87;43.91;98158.03;5223904;28;20199;-62
2021/06/26 07:35:30;;;;;;;11.80;10.80;;;26.50;99.10;;;29.20;43.16;98148.91;5226137;28;20191;-63
2021/06/26 07:38:03;;;;;;;11.57;10.68;;;26.60;99.10;;;29.39;43.08;98150.41;5225333;28;20307;-63
2021/06/26 07:40:36;;;;;;;9.70;9.00;;;26.90;98.30;;;29.76;43.36;98149.00;5220529;28;20238;-63
2021/06/26 07:43:10;;;;;;;9.98;9.27;;;27.10;98.70;;;29.48;42.29;98144.13;5221318;28;20195;-63
2021/06/26 07:45:42;;;;;;;9.55;8.75;;;27.30;97.40;;;29.81;41.27;98147.19;5222438;28;20216;-62
2021/06/26 07:48:17;;;;;;;9.25;8.48;;;27.60;96.20;;;30.22;40.45;98154.47;5220835;28;20619;-63
2021/06/26 07:50:51;;;;;;;9.68;8.88;;;27.70;96.10;;;30.01;40.39;98150.38;5219205;28;20573;-62
2021/06/26 07:53:24;;;;;;;9.23;8.48;;;27.60;95.90;;;30.07;40.27;98149.41;5226763;28;20206;-63
2021/06/26 07:55:57;;;;;;;8.70;8.10;;;27.40;95.90;;;29.77;40.40;98142.88;5224763;28;20207;-60
2021/06/26 07:58:30;;;;;;;8.90;8.20;;;27.30;95.70;;;29.83;38.90;98141.00;5222651;28;20197;-61
2021/06/26 08:01:04;;;;;;;8.95;8.30;;;27.50;93.90;;;30.08;38.54;98141.47;5218948;28;20196;-63
2021/06/26 08:03:38;;;;;;;8.98;8.27;;;27.70;94.00;;;29.90;38.77;98136.50;5224470;28;20197;-63
2021/06/26 08:06:11;;;;;;;9.35;8.65;;;27.50;93.70;;;29.45;39.38;98138.91;5218777;28;20224;-62
2021/06/26 08:08:44;;;;;;;10.50;9.70;;;27.10;93.50;;;29.64;38.72;98127.22;5221198;28;20692;-61
2021/06/26 08:11:17;;;;;;;10.13;9.43;;;27.10;93.80;;;30.12;36.88;98136.16;5222874;28;20208;-63
2021/06/26 08:13:52;;;;;;;8.85;8.25;;;27.30;92.10;;;30.22;37.62;98122.81;5219772;28;20219;-63
2021/06/26 08:16:26;;;;;;;10.50;9.68;;;27.40;93.10;;;30.00;37.78;98117.00;5222081;28;20239;-62
2021/06/26 08:19:00;;;;;;;9.63;8.85;;;27.60;92.90;;;30.56;38.71;98119.53;5223814;28;20209;-61
2021/06/26 08:21:33;;;;;;;9.95;9.23;;;27.90;94.00;;;30.31;37.93;98127.06;5221570;28;20207;-62
2021/06/26 08:24:07;;;;;;;11.07;10.13;;;27.60;93.00;;;29.25;39.76;98119.88;5224123;28;20197;-63
2021/06/26 08:27:00;;;;;;;9.18;8.57;;;27.20;93.20;;;29.16;41.00;98115.63;5216350;28;20213;-63
2021/06/26 08:29:33;;;;;;;11.65;10.75;;;27.20;94.20;;;28.99;39.95;98121.06;5205543;28;20684;-62
2021/06/26 08:32:08;;;;;;;10.25;9.55;;;27.20;92.90;;;28.88;41.70;98122.94;5219675;28;20283;-63
2021/06/26 08:34:42;;;;;;;9.73;9.02;;;27.10;94.00;;;28.99;40.25;98128.97;5225455;28;20192;-63
2021/06/26 08:37:36;;;;;;;11.18;10.27;;;27.30;93.10;;;28.61;40.72;98118.84;5220509;28;20235;-63
2021/06/26 08:40:11;;;;;;;10.05;9.30;;;27.10;92.30;;;28.36;39.60;98126.09;5224268;28;20204;-63
2021/06/26 08:42:44;;;;;;;10.85;10.05;;;27.10;91.50;;;28.13;41.42;98114.06;5222532;28;20201;-62
2021/06/26 08:45:19;;;;;;;10.95;10.05;;;26.90;92.80;;;27.10;43.05;98126.91;5216350;28;20213;-63
2021/06/26 08:47:55;;;;;;;10.75;9.95;;;25.80;93.50;;;27.22;44.12;98120.81;5223888;28;20218;-63
2021/06/26 08:50:29;;;;;;;10.77;9.98;;;25.80;95.10;;;27.06;45.19;98120.81;5204604;28;20559;-63
2021/06/26 08:53:02;;;;;;;12.57;11.48;;;25.70;95.50;;;26.89;45.46;98117.41;5203073;28;20715;-63
2021/06/26 08:55:35;;;;;;;10.43;9.63;;;25.70;95.50;;;27.45;45.78;98104.91;5217226;28;20197;-63
2021/06/26 08:58:10;;;;;;;11.32;10.52;;;26.30;95.90;;;27.95;43.36;98108.94;5215368;28;20244;-62
2021/06/26 09:00:43;;;;;;;12.10;11.10;;;26.60;94.10;;;27.99;42.23;98111.53;5211080;28;20246;-63
2021/06/26 09:03:21;;;;;;;11.02;10.23;;;27.10;92.90;;;27.63;44.16;98108.28;5221736;28;20207;-63
2021/06/26 09:06:04;;;;;;;11.65;10.68;;;26.90;94.00;;;27.88;42.78;98102.00;5217031;28;20227;-60
2021/06/26 09:08:49;;;;;;;11.50;10.52;;;26.90;93.70;;;28.16;42.70;98103.50;5208744;28;20200;-63
2021/06/26 09:11:22;;;;;;;10.82;10.02;;;27.30;93.30;;;28.19;43.00;98107.88;5217886;28;20288;-63
2021/06/26 09:13:55;;;;;;;11.27;10.48;;;27.00;93.90;;;27.97;43.39;98097.53;5217853;28;20418;-62
2021/06/26 09:16:28;;;;;;;10.93;10.13;;;26.90;93.90;;;28.00;43.96;98091.38;5213556;28;20303;-62
2021/06/26 09:19:12;;;;;;;10.98;10.18;;;26.90;94.00;;;27.79;43.14;98095.06;5226117;28;20223;-63
2021/06/26 09:21:56;;;;;;;11.65;10.75;;;26.60;94.30;;;27.26;44.90;98097.13;5223066;28;20198;-63
2021/06/26 09:24:43;;;;;;;11.57;10.73;;;26.10;94.80;;;26.93;45.50;98100.78;5227215;28;20295;-63
2021/06/26 09:27:19;;;;;;;10.93;10.02;;;25.60;95.00;;;26.61;45.41;98100.88;5225376;28;20218;-63
2021/06/26 09:29:55;;;;;;;10.75;9.88;;;25.30;95.10;;;26.43;47.74;98107.03;5223918;28;20591;-63
2021/06/26 09:32:30;;;;;;;10.63;9.70;;;25.30;96.60;;;26.66;47.47;98099.13;5227272;28;20656;-62
2021/06/26 09:35:03;;;;;;;10.60;9.80;;;25.40;96.90;;;26.95;47.83;98099.88;5225842;28;20226;-63
2021/06/26 09:37:38;;;;;;;10.45;9.65;;;25.90;96.80;;;27.34;47.25;98099.72;5223042;28;20220;-62
2021/06/26 09:40:13;;;;;;;9.43;8.73;;;26.40;96.10;;;27.55;44.90;98094.31;5226462;28;20200;-62
2021/06/26 09:42:48;;;;;;;9.68;8.98;;;26.60;94.80;;;27.92;42.41;98095.84;5206952;28;20209;-63
2021/06/26 09:45:22;;;;;;;8.80;8.10;;;27.10;92.40;;;28.15;41.21;98099.13;5225340;28;20219;-63
2021/06/26 09:47:55;;;;;;;8.88;8.15;;;27.10;92.30;;;28.08;41.91;98102.69;5226140;28;20231;-63
2021/06/26 09:50:28;;;;;;;8.90;8.10;;;27.00;92.60;;;28.35;42.19;98092.78;5220798;28;20211;-63
2021/06/26 09:53:05;;;;;;;9.07;8.38;;;27.30;93.20;;;28.48;41.47;98089.19;5230147;28;20451;-63
2021/06/26 09:55:43;;;;;;;9.00;8.30;;;27.20;92.80;;;28.15;41.99;98096.50;5223035;28;20204;-62
2021/06/26 09:58:17;;;;;;;10.32;9.52;;;27.00;93.20;;;27.87;41.97;98092.38;5225275;28;20192;-62
2021/06/26 10:00:50;;;;;;;10.13;9.32;;;26.60;92.60;;;27.73;44.22;98088.06;5222437;28;20200;-63
2021/06/26 10:03:26;;;;;;;10.07;9.30;;;26.50;94.30;;;27.57;43.12;98082.06;5224732;28;20226;-63
2021/06/26 10:05:59;;;;;;;9.98;9.23;;;26.30;93.80;;;27.57;44.31;98087.31;5224920;28;20613;-63
2021/06/26 10:08:34;;;;;;;10.68;9.77;;;26.30;94.20;;;27.48;43.48;98078.63;5221785;28;20197;-63
2021/06/26 10:11:07;;;;;;;9.93;9.15;;;26.10;93.70;;;27.26;45.02;98081.38;5221812;28;20203;-63
2021/06/26 10:13:41;;;;;;;9.32;8.63;;;25.90;94.50;;;27.40;44.09;98074.28;5221534;28;20209;-63
2021/06/26 10:16:15;;;;;;;9.57;8.88;;;26.10;93.80;;;27.45;44.10;98081.28;5224685;28;20227;-63
2021/06/26 10:18:48;;;;;;;9.18;8.50;;;26.00;94.20;;;27.17;44.86;98079.69;5218637;28;20196;-63
2021/06/26 10:21:21;;;;;;;8.57;7.93;;;25.90;94.80;;;27.47;44.30;98067.25;5224539;28;20298;-63
2021/06/26 10:23:59;;;;;;;8.65;7.97;;;26.20;93.90;;;27.60;44.85;98071.53;5218564;28;20665;-63
2021/06/26 10:26:37;;;;;;;8.88;8.27;;;26.50;93.80;;;27.75;45.82;98060.00;5218199;28;20234;-62
2021/06/26 10:29:13;;;;;;;9.80;9.10;;;26.80;95.20;;;27.94;42.93;98065.16;5220286;28;20572;-63
2021/06/26 10:31:46;;;;;;;9.45;8.75;;;27.10;92.90;;;28.09;43.12;98062.38;5225191;28;20207;-63
2021/06/26 10:34:22;;;;;;;8.27;7.72;;;27.20;93.00;;;28.21;41.32;98054.34;5224471;28;20748;-63
2021/06/26 10:36:55;;;;;;;8.13;7.53;;;27.10;91.80;;;28.48;41.41;98055.00;5224448;28;20224;-63